Time;durP1;ratioP1;P1;durP2;ratioP2;P2;SDS_P1;SDS_P2;PMS_P1;PMS_P2;Temp;Humidity;BMP_temperature;BMP_pressure;BME280_temperature;BME280_humidity;BME280_pressure;Samples;Min_cycle;Max_cycle;Signal;HPM_P1;HPM_P2
2021/07/23 00:01:33;;;;;;;14.20;10.48;;;;;;;16.37;70.63;100572.31;2171422;82;28626;-67
2021/07/23 00:04:35;;;;;;;15.48;11.05;;;;;;;16.39;70.70;100577.14;2170550;82;31011;-67
2021/07/23 00:07:37;;;;;;;17.52;11.25;;;;;;;16.39;70.72;100570.84;2177149;80;33745;-68
2021/07/23 00:10:39;;;;;;;15.45;10.25;;;;;;;16.40;70.71;100572.11;2181591;81;29374;-66
2021/07/23 00:13:41;;;;;;;18.57;12.35;;;;;;;16.42;70.73;100572.49;2181798;81;27619;-67
2021/07/23 00:16:42;;;;;;;17.15;11.22;;;;;;;16.40;70.74;100568.05;2200021;80;28666;-67
2021/07/23 00:19:45;;;;;;;21.60;11.85;;;;;;;16.39;70.87;100566.79;2204130;80;31146;-67
2021/07/23 00:22:47;;;;;;;18.45;12.20;;;;;;;16.24;70.85;100545.27;2203930;80;32968;-67
2021/07/23 00:25:49;;;;;;;15.48;11.68;;;;;;;16.24;70.85;100545.27;2165408;80;29787;-67
2021/07/23 00:28:51;;;;;;;20.82;12.33;;;;;;;16.37;70.86;100572.82;2161624;82;27734;-67
2021/07/23 00:31:53;;;;;;;22.45;13.32;;;;;;;16.35;70.96;100563.45;2161427;82;29399;-66
2021/07/23 00:34:55;;;;;;;21.87;13.32;;;;;;;16.32;71.14;100562.80;2161575;81;31007;-66
2021/07/23 00:37:57;;;;;;;18.25;12.85;;;;;;;16.32;71.14;100562.80;2164915;80;33211;-67
2021/07/23 00:40:59;;;;;;;19.82;13.05;;;;;;;16.31;71.00;100564.62;2161125;82;30571;-67
2021/07/23 00:44:01;;;;;;;20.90;13.13;;;;;;;16.29;70.85;100565.25;2180203;80;27779;-66
2021/07/23 00:47:04;;;;;;;25.02;14.00;;;;;;;16.28;71.10;100562.16;2203905;80;28116;-66
2021/07/23 00:50:07;;;;;;;22.73;13.75;;;;;;;16.28;71.18;100566.22;2202866;80;32358;-67
2021/07/23 00:53:10;;;;;;;20.00;13.05;;;;;;;16.26;71.20;100564.10;2204049;80;33034;-66
2021/07/23 00:56:12;;;;;;;21.95;13.20;;;;;;;16.26;71.20;100564.10;2204150;80;29483;-67
2021/07/23 00:59:16;;;;;;;20.70;13.13;;;;;;;16.23;71.18;100569.21;2204125;80;27759;-67
2021/07/23 01:02:20;;;;;;;17.82;12.45;;;;;;;16.22;71.25;100563.42;2203996;80;28657;-67
2021/07/23 01:05:23;;;;;;;21.68;13.75;;;;;;;16.22;71.31;100562.08;2204211;80;31035;-67
2021/07/23 01:08:25;;;;;;;24.23;13.90;;;;;;;16.22;71.32;100563.92;2203655;80;33731;-67
2021/07/23 01:11:27;;;;;;;22.30;12.90;;;;;;;16.22;71.32;100557.17;2204006;80;29412;-66
2021/07/23 01:14:30;;;;;;;22.73;13.20;;;;;;;16.22;71.32;100562.58;2189123;80;27714;-67
2021/07/23 01:17:32;;;;;;;19.25;13.00;;;;;;;16.20;71.37;100557.29;2164324;80;28629;-67
2021/07/23 01:20:33;;;;;;;20.48;12.58;;;;;;;16.19;71.39;100555.55;2161790;81;30997;-67
2021/07/23 01:23:37;;;;;;;22.58;13.88;;;;;;;16.17;71.35;100556.14;2161732;82;33739;-67
2021/07/23 01:26:40;;;;;;;21.35;13.48;;;;;;;16.18;71.39;100561.05;2164184;80;29311;-67
2021/07/23 01:29:42;;;;;;;17.75;12.18;;;;;;;16.16;71.44;100554.88;2161871;82;27802;-67
2021/07/23 01:32:44;;;;;;;19.85;14.20;;;;;;;16.15;71.80;100555.84;2161837;82;28631;-67
2021/07/23 01:35:47;;;;;;;21.20;12.40;;;;;;;16.08;71.56;100556.29;2161385;82;31609;-67
2021/07/23 01:38:51;;;;;;;21.60;13.85;;;;;;;16.07;71.63;100557.73;2202167;80;33038;-66
2021/07/23 01:41:53;;;;;;;24.32;14.47;;;;;;;16.07;71.77;100559.08;2204359;80;35218;-67
2021/07/23 01:44:56;;;;;;;21.27;12.90;;;;;;;16.09;71.88;100559.37;2204513;80;27659;-67
2021/07/23 01:47:58;;;;;;;20.97;13.48;;;;;;;16.10;71.89;100554.35;2203482;80;28686;-66
2021/07/23 01:51:00;;;;;;;21.93;12.23;;;;;;;16.12;71.92;100559.64;2204287;80;31783;-67
2021/07/23 01:54:02;;;;;;;20.55;12.93;;;;;;;16.14;71.98;100555.47;2165103;80;33893;-67
2021/07/23 01:57:05;;;;;;;22.02;13.32;;;;;;;16.14;72.02;100552.77;2161879;82;29911;-68
2021/07/23 02:00:09;;;;;;;21.12;13.80;;;;;;;16.14;72.12;100549.59;2161854;82;28187;-66
2021/07/23 02:03:12;;;;;;;20.00;13.97;;;;;;;16.16;72.17;100549.00;2197125;80;28890;-67
2021/07/23 02:06:15;;;;;;;21.48;13.68;;;;;;;16.19;72.19;100551.50;2204006;80;31799;-67
2021/07/23 02:09:17;;;;;;;21.85;13.75;;;;;;;16.19;72.29;100549.27;2200865;80;33683;-67
2021/07/23 02:12:19;;;;;;;24.20;14.23;;;;;;;16.20;72.29;100553.23;2174191;80;29601;-67
2021/07/23 02:15:22;;;;;;;18.25;13.00;;;;;;;16.22;72.33;100558.02;2190749;81;27628;-67
2021/07/23 02:18:25;;;;;;;20.68;13.93;;;;;;;16.23;72.33;100554.34;2172309;82;28835;-68
2021/07/23 02:21:27;;;;;;;21.30;13.32;;;;;;;16.27;72.40;100561.78;2180040;81;31202;-67
2021/07/23 02:24:29;;;;;;;23.95;14.43;;;;;;;16.30;72.53;100550.72;2207267;80;33736;-67
2021/07/23 02:27:34;;;;;;;20.92;13.68;;;;;;;16.22;72.54;100539.09;2207384;80;29335;-68
2021/07/23 02:30:34;;;;;;;23.73;14.38;;;;;;;16.22;72.54;100539.09;2207085;80;27641;-68
2021/07/23 02:33:37;;;;;;;20.00;14.10;;;;;;;16.36;72.47;100555.72;2207287;80;29359;-67
2021/07/23 02:36:38;;;;;;;22.67;14.70;;;;;;;16.40;72.51;100553.19;2177914;80;31047;-67
2021/07/23 02:39:40;;;;;;;20.25;13.58;;;;;;;16.44;72.50;100555.67;2204282;80;32930;-66
2021/07/23 02:42:42;;;;;;;24.23;14.50;;;;;;;16.45;72.51;100546.59;2172472;80;29318;-67
2021/07/23 02:45:44;;;;;;;28.10;13.78;;;;;;;16.47;72.51;100547.32;2190899;80;27606;-68
2021/07/23 02:48:46;;;;;;;25.70;14.98;;;;;;;16.37;72.61;100529.05;2172211;80;29492;-67
2021/07/23 02:51:48;;;;;;;18.45;12.98;;;;;;;16.38;72.61;100521.83;2190958;80;32105;-68
2021/07/23 02:54:50;;;;;;;23.05;15.78;;;;;;;16.52;72.62;100544.70;2172195;81;33792;-68
2021/07/23 02:57:52;;;;;;;24.72;13.58;;;;;;;16.53;72.60;100545.08;2184253;81;30099;-68
2021/07/23 03:00:54;;;;;;;21.17;14.23;;;;;;;16.56;72.70;100538.07;2207354;80;27693;-68
2021/07/23 03:03:56;;;;;;;22.45;13.93;;;;;;;16.47;72.69;100514.40;2207371;80;29545;-68
2021/07/23 03:06:58;;;;;;;22.37;13.32;;;;;;;16.54;72.66;100519.77;2207066;80;31884;-68
2021/07/23 03:10:02;;;;;;;19.55;14.30;;;;;;;16.63;72.73;100533.09;2207348;80;28102;-68
2021/07/23 03:13:03;;;;;;;21.60;13.62;;;;;;;16.65;72.70;100533.84;2212066;80;29349;-68
2021/07/23 03:16:14;;;;;;;22.13;13.30;;;;;;;16.66;72.62;100527.97;2208436;80;27698;-67
2021/07/23 03:19:12;;;;;;;20.62;14.30;;;;;;;16.66;72.58;100524.76;2220957;80;28727;-67
2021/07/23 03:22:13;;;;;;;23.85;13.13;;;;;;;16.67;72.56;100529.20;2216838;80;31816;-67
2021/07/23 03:25:16;;;;;;;22.82;13.28;;;;;;;16.66;72.45;100520.70;2216686;80;32952;-68
2021/07/23 03:28:18;;;;;;;24.15;13.05;;;;;;;16.66;72.46;100519.85;2218131;80;29901;-68
2021/07/23 03:31:20;;;;;;;21.70;12.60;;;;;;;16.56;72.62;100493.95;2217933;80;28220;-67
2021/07/23 03:34:22;;;;;;;20.40;13.83;;;;;;;16.70;72.52;100515.95;2192269;80;28692;-65
2021/07/23 03:37:24;;;;;;;20.37;12.15;;;;;;;16.70;72.52;100515.95;2155834;81;30880;-68
2021/07/23 03:40:26;;;;;;;20.68;13.10;;;;;;;16.72;72.38;100513.98;2155681;82;32542;-69
2021/07/23 03:43:30;;;;;;;21.60;12.45;;;;;;;16.75;72.50;100522.38;2155711;82;30251;-68
2021/07/23 03:46:32;;;;;;;19.77;13.43;;;;;;;16.75;72.50;100522.38;2159047;80;27694;-68
2021/07/23 03:49:34;;;;;;;20.88;13.13;;;;;;;16.76;72.41;100519.55;2155842;82;28735;-68
2021/07/23 03:52:36;;;;;;;22.73;13.40;;;;;;;16.78;72.45;100523.02;2155509;82;31028;-69
2021/07/23 03:55:38;;;;;;;24.70;12.90;;;;;;;16.81;72.58;100515.16;2173443;80;32940;-68
2021/07/23 03:58:40;;;;;;;19.27;13.45;;;;;;;16.85;72.54;100512.61;2175796;81;29506;-68
2021/07/23 04:01:42;;;;;;;18.65;12.25;;;;;;;16.91;72.52;100510.82;2174939;81;27769;-64
2021/07/23 04:04:44;;;;;;;23.95;13.32;;;;;;;16.89;72.32;100476.71;2221573;80;28685;-68
2021/07/23 04:07:46;;;;;;;22.98;14.25;;;;;;;16.89;72.32;100476.71;2215089;80;30982;-63
2021/07/23 04:10:50;;;;;;;19.67;12.65;;;;;;;17.07;72.46;100504.31;2210363;80;33094;-68
2021/07/23 04:13:52;;;;;;;21.95;13.83;;;;;;;17.11;72.47;100505.31;2096560;84;29378;-64
2021/07/23 04:16:55;;;;;;;23.73;12.90;;;;;;;17.16;72.39;100501.79;2100598;84;27698;-65
2021/07/23 04:19:57;;;;;;;21.12;13.65;;;;;;;17.23;72.41;100506.73;2102250;84;28719;-66
2021/07/23 04:22:59;;;;;;;22.45;13.22;;;;;;;17.27;72.36;100506.88;2106649;84;32194;-67
2021/07/23 04:26:01;;;;;;;16.90;13.08;;;;;;;17.34;72.31;100501.87;2108918;84;34136;-68
2021/07/23 04:29:03;;;;;;;24.07;13.60;;;;;;;17.38;72.25;100508.28;2108659;84;30451;-72
2021/07/23 04:32:06;;;;;;;23.60;14.23;;;;;;;17.45;72.24;100509.56;2103463;84;27694;-73
2021/07/23 04:35:10;;;;;;;29.98;14.28;;;;;;;17.53;72.21;100504.08;2099973;84;29555;-72
2021/07/23 04:38:13;;;;;;;24.73;13.67;;;;;;;17.60;72.16;100503.49;2105141;84;31039;-68
2021/07/23 04:41:15;;;;;;;24.57;13.45;;;;;;;17.69;72.08;100501.92;2108627;84;33134;-68
2021/07/23 04:44:17;;;;;;;30.52;13.85;;;;;;;17.74;71.98;100504.27;2104800;84;29306;-68
2021/07/23 04:47:19;;;;;;;29.23;14.70;;;;;;;17.79;71.79;100503.41;2100088;84;28434;-68
2021/07/23 04:50:21;;;;;;;24.25;15.08;;;;;;;17.82;71.72;100500.47;2100260;84;29551;-68
2021/07/23 04:53:22;;;;;;;28.95;14.07;;;;;;;17.89;71.72;100506.27;2101552;84;31140;-69
2021/07/23 04:56:24;;;;;;;30.00;15.58;;;;;;;17.98;71.80;100496.12;2101819;84;32971;-69
2021/07/23 04:59:26;;;;;;;29.40;14.63;;;;;;;18.10;71.71;100500.20;2102048;84;29328;-68
2021/07/23 05:02:28;;;;;;;30.95;14.53;;;;;;;18.23;71.56;100495.53;2102883;84;27786;-67
2021/07/23 05:05:31;;;;;;;20.97;15.03;;;;;;;18.35;71.47;100492.35;2081218;84;28812;-69
2021/07/23 05:08:34;;;;;;;26.48;14.50;;;;;;;18.49;71.31;100497.53;2067238;85;31066;-69
2021/07/23 05:11:36;;;;;;;25.55;14.40;;;;;;;18.66;71.29;100487.17;2164838;80;34045;-68
2021/07/23 05:14:38;;;;;;;23.55;13.78;;;;;;;18.82;71.09;100492.23;2163676;81;29395;-69
2021/07/23 05:17:40;;;;;;;33.38;15.55;;;;;;;19.00;70.90;100490.39;2190861;81;28148;-68
2021/07/23 05:20:43;;;;;;;26.02;14.93;;;;;;;19.19;70.59;100478.38;2217593;80;28693;-68
2021/07/23 05:23:46;;;;;;;27.55;15.48;;;;;;;19.38;70.27;100483.59;2217542;80;31080;-68
2021/07/23 05:26:48;;;;;;;25.77;15.23;;;;;;;19.62;70.23;100477.94;2188299;81;32981;-67
2021/07/23 05:29:51;;;;;;;24.82;14.68;;;;;;;19.89;70.00;100484.27;2217718;80;29341;-69
2021/07/23 05:32:53;;;;;;;22.80;14.87;;;;;;;20.18;69.85;100473.22;2217307;80;27708;-69
2021/07/23 05:35:55;;;;;;;25.75;15.95;;;;;;;20.41;69.21;100475.78;2217170;80;29602;-69
2021/07/23 05:38:57;;;;;;;28.02;15.08;;;;;;;20.63;68.83;100472.00;2217511;80;31060;-68
2021/07/23 05:41:59;;;;;;;30.82;16.20;;;;;;;20.86;68.48;100476.76;2216352;80;33093;-69
2021/07/23 05:45:00;;;;;;;25.45;15.23;;;;;;;21.07;68.12;100478.02;2181021;80;29318;-69
2021/07/23 05:48:03;;;;;;;28.83;15.70;;;;;;;21.28;67.89;100477.05;2216464;80;27772;-69
2021/07/23 05:51:06;;;;;;;27.45;15.30;;;;;;;21.46;67.46;100473.63;2216549;80;29534;-71
2021/07/23 05:54:08;;;;;;;27.27;15.70;;;;;;;21.62;66.98;100477.16;2216591;80;31161;-70
2021/07/23 05:57:10;;;;;;;21.45;13.18;;;;;;;21.79;66.73;100474.22;2216611;80;32958;-72
2021/07/23 06:00:13;;;;;;;26.23;13.55;;;;;;;21.96;66.69;100472.12;2216909;80;29385;-70
2021/07/23 06:03:16;;;;;;;20.88;14.63;;;;;;;22.11;66.06;100473.02;2190574;81;47003;-67
2021/07/23 06:06:18;;;;;;;24.55;15.63;;;;;;;22.21;65.66;100475.20;2217572;80;29499;-70
2021/07/23 06:09:20;;;;;;;21.95;15.48;;;;;;;22.34;65.27;100469.95;2217664;79;31034;-68
2021/07/23 06:12:22;;;;;;;26.02;13.55;;;;;;;22.47;64.88;100471.86;2218782;80;33050;-70
2021/07/23 06:15:24;;;;;;;22.40;13.18;;;;;;;22.65;64.82;100480.11;2218691;80;30092;-70
2021/07/23 06:18:26;;;;;;;26.60;14.10;;;;;;;22.84;64.34;100476.93;2218922;80;27674;-71
2021/07/23 06:21:28;;;;;;;25.25;14.53;;;;;;;22.98;63.93;100476.41;2223702;80;29463;-69
2021/07/23 06:24:30;;;;;;;26.57;14.05;;;;;;;23.15;63.65;100478.84;2224664;80;30982;-69
2021/07/23 06:27:32;;;;;;;21.50;14.43;;;;;;;23.32;63.07;100470.33;2224139;80;34222;-69
2021/07/23 06:30:34;;;;;;;29.85;14.25;;;;;;;23.51;62.83;100475.29;2224266;80;29366;-70
2021/07/23 06:33:35;;;;;;;21.35;15.00;;;;;;;23.71;62.46;100470.50;2224537;80;27768;-68
2021/07/23 06:36:37;;;;;;;23.75;14.33;;;;;;;23.87;61.79;100471.65;2224541;80;28639;-69
2021/07/23 06:39:39;;;;;;;23.47;14.30;;;;;;;24.07;61.67;100469.10;2224534;79;31005;-68
2021/07/23 06:42:42;;;;;;;23.95;15.05;;;;;;;24.23;60.86;100472.97;2218900;80;32949;-67
2021/07/23 06:45:53;;;;;;;17.87;13.60;;;;;;;24.39;60.44;100468.95;2217249;80;30263;-66
2021/07/23 06:48:55;;;;;;;23.40;13.40;;;;;;;24.60;59.85;100472.30;2217611;80;27709;-69
2021/07/23 06:51:57;;;;;;;19.80;13.18;;;;;;;24.90;59.73;100468.19;2217700;80;29799;-68
2021/07/23 06:55:00;;;;;;;24.65;14.47;;;;;;;25.22;58.86;100472.04;2217548;80;30437;-67
2021/07/23 06:58:02;;;;;;;19.60;13.48;;;;;;;25.47;58.35;100472.13;2217577;80;32392;-67
2021/07/23 07:01:06;;;;;;;22.42;12.00;;;;;;;25.73;57.79;100471.09;2218094;80;29452;-66
2021/07/23 07:04:09;;;;;;;20.88;12.50;;;;;;;25.96;57.19;100468.51;2196862;80;27870;-67
2021/07/23 07:07:13;;;;;;;16.70;11.15;;;;;;;26.22;56.63;100469.70;2218685;80;29539;-67
2021/07/23 07:10:16;;;;;;;19.87;12.37;;;;;;;26.50;56.03;100461.56;2217646;79;31673;-67
2021/07/23 07:13:22;;;;;;;18.30;12.50;;;;;;;26.70;53.85;100463.36;2190247;81;33030;-67
2021/07/23 07:16:25;;;;;;;19.25;11.53;;;;;;;26.90;54.01;100464.34;2190232;81;29370;-67
2021/07/23 07:19:28;;;;;;;24.45;12.03;;;;;;;27.20;53.38;100467.27;2217655;80;27698;-70
2021/07/23 07:22:30;;;;;;;19.45;11.57;;;;;;;27.43;52.53;100457.65;2168173;81;28636;-71
2021/07/23 07:25:33;;;;;;;16.42;11.30;;;;;;;27.66;52.36;100465.92;2154409;82;31844;-71
2021/07/23 07:28:35;;;;;;;18.25;12.70;;;;;;;27.87;51.92;100463.00;2154466;82;32895;-70
2021/07/23 07:31:37;;;;;;;20.20;11.80;;;;;;;28.09;50.80;100463.98;2154412;82;29275;-69
2021/07/23 07:34:39;;;;;;;19.50;12.03;;;;;;;28.31;50.80;100464.15;2154471;82;27725;-70
2021/07/23 07:37:41;;;;;;;17.32;11.43;;;;;;;28.55;50.67;100463.52;2154366;82;28628;-70
2021/07/23 07:40:44;;;;;;;16.60;11.65;;;;;;;28.82;49.72;100461.16;2154547;82;31038;-71
2021/07/23 07:43:46;;;;;;;17.50;13.32;;;;;;;29.05;49.78;100463.23;2154403;82;32944;-62
2021/07/23 07:46:49;;;;;;;20.82;12.23;;;;;;;29.32;49.17;100465.44;2163096;82;29509;-62
2021/07/23 07:49:51;;;;;;;23.32;12.58;;;;;;;29.52;47.63;100462.94;2164318;82;27684;-63
2021/07/23 07:52:53;;;;;;;18.90;13.32;;;;;;;29.64;47.24;100455.82;2164049;82;29405;-64
2021/07/23 07:55:56;;;;;;;19.82;12.50;;;;;;;29.85;46.93;100461.84;2163846;82;32262;-64
2021/07/23 07:58:59;;;;;;;19.85;12.60;;;;;;;29.97;45.72;100456.66;2164046;82;33121;-63
2021/07/23 08:02:02;;;;;;;27.80;12.65;;;;;;;30.16;45.22;100461.16;2164103;82;30166;-62
2021/07/23 08:05:06;;;;;;;18.10;12.65;;;;;;;30.25;44.56;100456.33;2164032;82;27636;-64
2021/07/23 08:08:12;;;;;;;;;;;;;;;30.32;44.36;100454.44;2166507;82;28757;-62
2021/07/23 08:11:12;;;;;;;22.98;11.33;;;;;;;30.58;43.87;100455.16;2176833;80;31418;-63
2021/07/23 08:14:14;;;;;;;16.55;11.48;;;;;;;30.86;44.17;100454.21;2217481;80;33057;-64
2021/07/23 08:17:17;;;;;;;15.45;10.80;;;;;;;31.36;43.82;100451.72;2190715;81;29709;-64
2021/07/23 08:20:19;;;;;;;15.00;11.12;;;;;;;31.85;42.40;100452.99;2190463;81;27623;-63
2021/07/23 08:23:21;;;;;;;19.45;11.18;;;;;;;32.13;40.06;100449.44;2190572;81;28685;-63
2021/07/23 08:26:23;;;;;;;15.35;10.13;;;;;;;32.21;40.08;100448.36;2217132;80;32239;-64
2021/07/23 08:29:26;;;;;;;14.47;10.63;;;;;;;32.39;39.18;100446.31;2190179;81;34216;-65
2021/07/23 08:32:31;;;;;;;11.28;9.65;;;;;;;32.51;38.51;100452.05;2190373;81;29873;-64
2021/07/23 08:35:33;;;;;;;12.40;8.98;;;;;;;32.61;38.06;100453.49;2217287;80;27709;-64
2021/07/23 08:38:34;;;;;;;19.70;9.90;;;;;;;32.68;38.65;100451.01;2212105;80;28046;-76
2021/07/23 08:41:36;;;;;;;13.62;9.55;;;;;;;32.70;37.70;100454.97;2210147;80;31904;-73
2021/07/23 08:44:38;;;;;;;13.25;8.75;;;;;;;32.64;36.90;100448.38;2217495;80;33797;-76
2021/07/23 08:47:40;;;;;;;9.53;8.38;;;;;;;32.60;37.31;100448.50;2190318;81;30370;-78
2021/07/23 08:50:43;;;;;;;12.78;8.40;;;;;;;32.75;37.37;100452.92;2217728;80;27768;-76
2021/07/23 08:53:45;;;;;;;12.07;8.83;;;;;;;32.85;37.16;100447.25;2217719;80;29452;-74
2021/07/23 08:56:48;;;;;;;10.65;8.60;;;;;;;33.03;36.41;100449.84;2217632;80;31015;-74
2021/07/23 08:59:50;;;;;;;14.20;7.72;;;;;;;33.09;36.38;100436.98;2190815;81;33781;-77
2021/07/23 09:02:57;;;;;;;11.88;9.20;;;;;;;33.39;36.45;100440.05;2211222;80;30269;-63
2021/07/23 09:05:59;;;;;;;10.78;9.00;;;;;;;33.62;35.71;100442.22;2210536;80;27605;-64
2021/07/23 09:09:04;;;;;;;11.95;8.48;;;;;;;33.75;34.99;100437.62;2137400;81;29918;-63
2021/07/23 09:12:06;;;;;;;12.75;8.23;;;;;;;33.88;34.16;100433.87;2178655;80;31221;-64
2021/07/23 09:15:27;;;;;;;14.85;9.48;;;;;;;34.01;34.25;100437.08;2182277;81;32850;-63
2021/07/23 09:18:33;;;;;;;11.10;8.70;;;;;;;34.33;33.53;100433.66;2217533;80;30068;-63
2021/07/23 09:21:40;;;;;;;10.98;8.53;;;;;;;34.41;33.23;100431.11;2217725;80;27599;-64
2021/07/23 09:24:52;;;;;;;9.80;6.50;;;;;;;34.36;33.44;100431.81;2179366;81;28657;-64
2021/07/23 09:27:55;;;;;;;12.47;7.95;;;;;;;34.37;33.27;100429.86;2126292;83;31834;-63
2021/07/23 09:31:03;;;;;;;9.75;7.90;;;;;;;34.35;32.75;100422.29;2163424;82;34195;-63
2021/07/23 09:34:05;;;;;;;9.28;8.38;;;;;;;34.30;32.82;100432.72;2139386;80;29714;-63
2021/07/23 09:37:12;;;;;;;11.25;8.88;;;;;;;34.20;32.71;100430.47;2138692;82;27675;-63
2021/07/23 09:40:14;;;;;;;11.65;9.03;;;;;;;34.11;32.64;100426.30;2163031;80;28997;-63
2021/07/23 09:43:32;;;;;;;17.70;9.10;;;;;;;33.82;30.90;100430.61;2161689;82;31768;-63
2021/07/23 09:46:42;;;;;;;11.50;8.60;;;;;;;33.26;31.32;100424.83;2215581;80;33472;-65
2021/07/23 09:49:45;;;;;;;12.15;9.20;;;;;;;32.70;30.99;100421.68;2190599;81;29363;-63
2021/07/23 09:52:48;;;;;;;10.03;8.63;;;;;;;32.19;31.18;100417.23;2209439;80;27686;-63
2021/07/23 09:55:50;;;;;;;15.13;9.75;;;;;;;31.84;31.63;100408.34;2211544;80;28709;-64
2021/07/23 09:59:02;;;;;;;13.65;9.03;;;;;;;31.55;31.74;100411.30;2217315;80;31016;-64
2021/07/23 10:02:06;;;;;;;11.75;8.78;;;;;;;31.28;32.50;100403.49;2187227;80;34435;-64
2021/07/23 10:05:13;;;;;;;11.25;9.00;;;;;;;30.86;32.12;100406.34;2159774;81;29903;-64
2021/07/23 10:08:31;;;;;;;13.70;9.38;;;;;;;30.57;32.92;100412.52;2217746;80;27599;-65
2021/07/23 10:11:33;;;;;;;10.93;9.80;;;;;;;30.44;33.28;100404.46;2190145;80;28699;-64
2021/07/23 10:14:40;;;;;;;13.40;9.88;;;;;;;30.07;32.97;100409.34;2189848;81;31131;-64
2021/07/23 10:17:43;;;;;;;12.13;10.13;;;;;;;29.78;32.98;100400.19;2190336;81;33849;-63
2021/07/23 10:20:48;;;;;;;15.80;9.88;;;;;;;29.57;33.01;100398.30;2190398;80;30541;-63
2021/07/23 10:23:51;;;;;;;13.20;10.40;;;;;;;29.50;33.47;100396.02;2190454;81;27786;-62
2021/07/23 10:26:53;;;;;;;10.70;9.25;;;;;;;29.34;33.41;100397.98;2190726;81;28720;-63
2021/07/23 10:29:56;;;;;;;13.78;9.75;;;;;;;29.11;33.14;100396.25;2162103;80;31892;-63
2021/07/23 10:32:59;;;;;;;16.90;10.25;;;;;;;28.94;33.46;100397.55;2151681;82;33024;-63
2021/07/23 10:36:01;;;;;;;14.63;9.93;;;;;;;28.76;33.94;100395.23;2151770;81;29144;-64
2021/07/23 10:39:19;;;;;;;12.63;9.20;;;;;;;28.78;34.68;100385.72;2151040;82;27716;-63
2021/07/23 10:42:26;;;;;;;16.15;10.10;;;;;;;28.78;34.42;100383.50;2150599;82;28676;-64
2021/07/23 10:45:42;;;;;;;10.00;7.80;;;;;;;28.68;33.75;100383.77;2163067;81;31068;-64
2021/07/23 10:48:47;;;;;;;12.50;10.25;;;;;;;28.66;34.78;100380.34;2190756;80;33804;-63
2021/07/23 10:51:50;;;;;;;;;;;;;;;28.74;33.91;100378.03;2193495;81;29329;-63
2021/07/23 10:55:16;;;;;;;13.15;10.10;;;;;;;28.60;34.04;100378.35;2165179;81;28036;-63
2021/07/23 10:58:24;;;;;;;12.03;9.38;;;;;;;28.49;34.07;100374.19;2190959;80;28636;-62
2021/07/23 11:01:31;;;;;;;12.25;9.10;;;;;;;28.48;34.34;100368.34;2177975;81;31988;-61
2021/07/23 11:04:38;;;;;;;14.43;9.83;;;;;;;28.52;34.54;100363.31;2177631;81;33850;-66
2021/07/23 11:07:41;;;;;;;10.20;7.97;;;;;;;28.50;34.21;100360.73;2190842;81;29317;-65
2021/07/23 11:10:43;;;;;;;10.10;8.95;;;;;;;28.45;34.10;100357.19;2176714;79;27548;-62
2021/07/23 11:13:45;;;;;;;11.95;8.20;;;;;;;28.27;33.67;100354.85;2199074;78;29660;-63
2021/07/23 11:16:47;;;;;;;12.85;9.73;;;;;;;28.22;34.27;100349.56;2180952;80;31857;-65
2021/07/23 11:19:55;;;;;;;10.72;9.50;;;;;;;28.25;34.25;100343.67;2175595;81;33019;-64
2021/07/23 11:22:57;;;;;;;14.28;9.85;;;;;;;28.29;34.38;100343.13;2209337;78;30207;-63
2021/07/23 11:26:01;;;;;;;11.60;9.58;;;;;;;28.21;34.08;100344.59;2181848;80;28142;-64
2021/07/23 11:29:03;;;;;;;18.40;10.00;;;;;;;28.17;34.71;100348.77;2210768;78;33178;-64
2021/07/23 11:32:11;;;;;;;9.78;8.55;;;;;;;28.17;34.47;100343.25;2181777;80;31783;-65
2021/07/23 11:35:13;;;;;;;12.60;9.20;;;;;;;28.09;34.49;100341.42;2151495;81;33250;-64
2021/07/23 11:38:17;;;;;;;12.20;8.50;;;;;;;28.04;34.05;100335.65;2167333;79;30537;-65
2021/07/23 11:41:19;;;;;;;15.30;9.80;;;;;;;28.10;34.94;100336.28;2165536;79;28301;-64
2021/07/23 11:44:21;;;;;;;10.78;9.03;;;;;;;28.23;34.90;100333.36;2215032;78;29076;-63
2021/07/23 11:47:35;;;;;;;16.02;8.38;;;;;;;28.31;34.88;100331.36;2201341;78;32245;-68
2021/07/23 11:50:37;;;;;;;14.38;8.55;;;;;;;28.40;34.12;100332.64;2204109;78;33111;-73
2021/07/23 11:53:41;;;;;;;14.15;9.15;;;;;;;28.41;34.46;100328.30;2191211;80;29308;-68
2021/07/23 11:56:44;;;;;;;;;;;;;;;28.41;34.44;100324.70;2190920;80;27627;-68
2021/07/23 11:59:46;;;;;;;14.15;9.33;;;;;;;28.48;34.01;100319.61;2199524;80;29501;-70
2021/07/23 12:02:50;;;;;;;11.90;8.93;;;;;;;28.64;35.01;100324.02;2116487;82;31105;-68
2021/07/23 12:05:52;;;;;;;;;;;;;;;28.88;35.18;100319.73;2175068;80;33973;-63
2021/07/23 12:08:56;;;;;;;10.43;7.87;;;;;;;29.09;35.66;100312.84;2170489;80;29358;-64
2021/07/23 12:11:58;;;;;;;10.77;8.27;;;;;;;29.26;35.06;100316.19;2163499;80;27608;-64
2021/07/23 12:15:11;;;;;;;11.18;7.92;;;;;;;29.44;35.12;100312.11;2159263;80;29055;-64
2021/07/23 12:18:19;;;;;;;10.43;8.20;;;;;;;29.58;35.11;100318.56;2164647;81;31093;-64
2021/07/23 12:21:27;;;;;;;9.95;7.45;;;;;;;29.69;34.45;100318.54;2170885;81;33187;-65
2021/07/23 12:24:31;;;;;;;12.43;8.35;;;;;;;29.75;34.41;100317.74;2165417;81;29396;-63
2021/07/23 12:27:33;;;;;;;9.48;8.10;;;;;;;29.80;34.26;100310.22;2170258;80;27711;-64
2021/07/23 12:30:37;;;;;;;9.63;8.33;;;;;;;29.79;34.21;100313.50;2202534;80;29917;-64
2021/07/23 12:33:39;;;;;;;10.05;7.78;;;;;;;29.74;33.93;100316.03;2138771;83;31088;-64
2021/07/23 12:36:51;;;;;;;8.95;7.70;;;;;;;29.66;34.05;100311.52;2082491;83;34204;-64
2021/07/23 12:39:59;;;;;;;137.20;112.57;;;;;;;29.60;34.18;100317.84;2155807;80;29684;-62
2021/07/23 12:43:14;;;;;;;16.70;13.32;;;;;;;29.50;33.50;100314.59;2175866;81;27682;-61
2021/07/23 12:46:31;;;;;;;;;;;;;;;29.43;33.80;100307.65;2180892;80;30143;-60
2021/07/23 12:49:38;;;;;;;13.38;8.63;;;;;;;29.41;33.86;100311.13;2177776;80;31157;-61
2021/07/23 12:52:51;;;;;;;10.55;8.70;;;;;;;29.30;33.38;100303.34;2177107;81;33827;-62
2021/07/23 12:55:58;;;;;;;10.63;8.23;;;;;;;29.26;33.99;100301.52;2177583;81;30177;-61
2021/07/23 12:59:00;;;;;;;10.90;7.42;;;;;;;29.22;33.08;100303.83;2205249;80;27646;-62
2021/07/23 13:02:03;;;;;;;10.75;8.13;;;;;;;29.19;33.29;100298.70;2178892;79;29936;-62
2021/07/23 13:05:06;;;;;;;9.70;8.08;;;;;;;29.25;33.45;100300.68;2176027;81;32270;-62
2021/07/23 13:08:08;;;;;;;9.88;8.35;;;;;;;29.29;33.90;100295.61;2177584;80;33933;-61
2021/07/23 13:11:11;;;;;;;9.93;8.00;;;;;;;29.31;33.96;100303.67;2170450;80;30188;-61
2021/07/23 13:14:13;;;;;;;11.78;8.45;;;;;;;29.30;34.06;100297.31;2158116;82;27730;-61
2021/07/23 13:17:15;;;;;;;9.58;8.45;;;;;;;29.31;33.76;100297.64;2158156;82;29122;-61
2021/07/23 13:20:17;;;;;;;10.10;7.92;;;;;;;29.33;33.57;100294.67;2189990;81;32287;-61
2021/07/23 13:23:19;;;;;;;9.78;8.23;;;;;;;29.36;34.00;100287.41;2190628;81;34087;-60
2021/07/23 13:26:21;;;;;;;10.18;8.00;;;;;;;29.39;33.43;100287.02;2190401;81;30512;-59
2021/07/23 13:29:23;;;;;;;11.70;8.30;;;;;;;29.39;33.59;100287.85;2185304;80;27695;-60
2021/07/23 13:32:26;;;;;;;9.20;7.92;;;;;;;29.42;33.92;100275.58;2193170;80;27893;-60
2021/07/23 13:35:28;;;;;;;13.25;8.23;;;;;;;29.45;33.75;100271.04;2184591;81;32166;-60
2021/07/23 13:38:33;;;;;;;11.15;8.55;;;;;;;29.41;33.40;100274.70;2152737;81;34410;-61
2021/07/23 13:41:36;;;;;;;12.25;8.58;;;;;;;29.25;33.18;100267.57;2176553;81;29197;-61
2021/07/23 13:44:38;;;;;;;13.32;8.05;;;;;;;29.15;32.82;100271.72;2190868;80;27671;-60
2021/07/23 13:47:43;;;;;;;10.53;8.38;;;;;;;29.04;32.83;100275.88;2190278;81;30762;-60
2021/07/23 13:50:45;;;;;;;10.53;8.78;;;;;;;28.98;32.51;100270.63;2189522;81;32255;-60
2021/07/23 13:53:47;;;;;;;12.50;7.47;;;;;;;28.93;32.48;100268.47;2172746;80;33433;-61
2021/07/23 13:56:49;;;;;;;10.78;8.60;;;;;;;28.79;32.32;100268.02;2162929;82;30457;-60
2021/07/23 13:59:52;;;;;;;12.05;8.05;;;;;;;28.73;32.82;100264.63;2164198;81;27683;-61